Terminal Aerodrome Forecast
Issued by NWS Tampa Bay Area, FL

Home | Current Version | Previous Version | Text Only | Print | Product List | Glossary On
Versions: 1 2 3 4 5 6 7 8 9 10 11 12 13
000
FTUS42 KTBW 031121
TAFSRQ
TAF
KSRQ 031121Z 0312/0412 VRB03KT P6SM FEW025 SCT250
     FM031500 29006KT P6SM FEW030 SCT250
     FM031700 29008KT P6SM SCT040 SCT250
     FM040000 31005KT P6SM FEW040 SCT250
     FM040900 28004KT P6SM VCSH SCT030 SCT100=

USA.gov is the U.S. government's official web portal to all federal, state and local government web resources and services.